Prevelis — SYDL — position and weather

sailwx.info

Track history (hours):
 
Tides and Currents Weather Stations Pressure Air Temp Water Temp Dewpoint Dewpoint Depression Visibility Wind Speed Wind Dir Waves Ship Positions

Prevelis

Last reported at 2016-May-31 11:33 UTC. Time now 2016-May-31 12:02 UTC.
Position N 38°02' E 023°30'.

Length 143 m; draft 5.5 m.

Type: Passenger vessel. MMSI: 239297000.

Date/timePositionNaut miles runAvg speedWind from/ knotsBaromVisibWave heightAir tempDewpointWater temp
2016-May-31 11:33N 38°02' E 023°30'0 0.0
2016-May-31 10:33N 38°02' E 023°30'0 0.0
2016-May-31 09:33N 38°02' E 023°30'0 0.0
2016-May-31 08:33N 38°02' E 023°30'0 0.0
2016-May-31 07:33N 38°02' E 023°30'0 0.0
2016-May-31 06:33N 38°02' E 023°30'2 1.0
2016-May-31 04:33N 38°01' E 023°32'6 6.3
2016-May-31 03:33N 37°57' E 023°38'0 0.0
2016-May-31 02:33N 37°57' E 023°38'0 0.0
2016-May-31 01:33N 37°57' E 023°38'0 0.0
2016-May-31 00:33N 37°57' E 023°38'0 0.0
2016-May-30 23:33N 37°57' E 023°38'0 0.0
2016-May-30 22:33N 37°57' E 023°38'0 0.0
2016-May-30 21:33N 37°57' E 023°38'0 0.0
2016-May-30 20:33N 37°57' E 023°38'0 0.0
2016-May-30 19:33N 37°57' E 023°38'0 0.0
2016-May-30 18:33N 37°57' E 023°38'0 0.0
2016-May-30 17:33N 37°57' E 023°38'0 0.0
2016-May-30 16:33N 37°57' E 023°38'0 0.0
2016-May-30 15:33N 37°57' E 023°38'0 0.0
2016-May-30 14:33N 37°57' E 023°38'0 0.0
2016-May-30 13:33N 37°57' E 023°38'0 0.0
2016-May-30 12:33N 37°57' E 023°38'0 0.0
2016-May-30 11:33N 37°57' E 023°38'0 0.0
2016-May-30 10:33N 37°57' E 023°38'7 6.7
2016-May-30 09:34N 37°50' E 023°39'1717.2
2016-May-30 08:34N 37°35' E 023°49'1717.3
2016-May-30 07:33N 37°20' E 023°59'1717.0
2016-May-30 06:33N 37°05' E 024°10'1716.9
2016-May-30 05:31N 36°49' E 024°20'8 7.3
2016-May-30 04:26N 36°43' E 024°26'  
2016-May-27 18:33N 37°13' E 024°03'1716.7
2016-May-27 17:34N 37°27' E 023°53'1616.3
2016-May-27 16:34N 37°41' E 023°42'1515.1
2016-May-27 15:33N 37°56' E 023°37'1 1.4
2016-May-27 14:33N 37°57' E 023°38'0 0.0
2016-May-27 13:32N 37°57' E 023°38'0 0.0
2016-May-27 12:33N 37°57' E 023°38'0 0.0
2016-May-27 11:33N 37°57' E 023°38'0 0.0
2016-May-27 10:33N 37°57' E 023°38'0 0.0
2016-May-27 09:33N 37°57' E 023°38'0 0.0
2016-May-27 08:33N 37°57' E 023°38'0 0.0
2016-May-27 07:33N 37°57' E 023°38'0 0.0
2016-May-27 06:33N 37°57' E 023°38'0 0.0
2016-May-27 05:33N 37°57' E 023°38'0 0.0
2016-May-27 04:33N 37°57' E 023°38'0 0.3
2016-May-27 03:33N 37°57' E 023°38'9 8.8
2016-May-27 02:34N 37°48' E 023°41'1716.4
2016-May-27 01:33N 37°33' E 023°49'1716.7
2016-May-27 00:33N 37°18' E 023°59'  
2016-May-24 20:33N 37°23' E 023°55'1717.1
2016-May-24 19:33N 37°38' E 023°44'1616.6
2016-May-24 18:33N 37°54' E 023°37'3 3.4
2016-May-24 17:33N 37°57' E 023°38'0 0.0
2016-May-24 16:33N 37°57' E 023°38'0 0.0
2016-May-24 15:33N 37°57' E 023°38'0 0.0
2016-May-24 14:33N 37°57' E 023°38'0 0.0
2016-May-24 13:33N 37°57' E 023°38'0 0.0
2016-May-24 12:33N 37°57' E 023°38'0 0.0
2016-May-24 11:34N 37°57' E 023°38'0 0.0
2016-May-24 10:33N 37°57' E 023°38'0 0.0
2016-May-24 09:33N 37°57' E 023°38'0 0.0
2016-May-24 08:33N 37°57' E 023°38'0 0.0
2016-May-24 07:33N 37°57' E 023°38'0 0.0
2016-May-24 06:33N 37°57' E 023°38'0 0.0
2016-May-24 05:33N 37°57' E 023°38'0 0.0
2016-May-24 04:33N 37°57' E 023°38'0 0.0
2016-May-24 03:33N 37°57' E 023°38'0 0.0
2016-May-24 02:33N 37°57' E 023°38'0 0.0
2016-May-24 01:33N 37°57' E 023°38'0 0.0
2016-May-24 00:34N 37°57' E 023°38'0 0.0
2016-May-23 23:33N 37°57' E 023°38'0 0.0
2016-May-23 22:33N 37°57' E 023°38'0 0.0
2016-May-23 21:33N 37°57' E 023°38'0 0.0
2016-May-23 20:33N 37°57' E 023°38'0 0.0
2016-May-23 19:33N 37°57' E 023°38'0 0.0
2016-May-23 18:33N 37°57' E 023°38'0 0.0
2016-May-23 17:33N 37°57' E 023°38'0 0.0
2016-May-23 16:32N 37°57' E 023°38'0 0.0
2016-May-23 15:33N 37°57' E 023°38'0 0.0
2016-May-23 14:33N 37°57' E 023°38'0 0.0
2016-May-23 13:33N 37°57' E 023°38'0 0.0
2016-May-23 12:33N 37°57' E 023°38'0 0.0
2016-May-23 11:33N 37°57' E 023°38'6 5.6
2016-May-23 10:34N 37°51' E 023°39'1716.7
2016-May-23 09:33N 37°36' E 023°48'1816.8
2016-May-23 08:30N 37°20' E 023°57'  
Track history (hours):
 
Tides and Currents Weather Stations Pressure Air Temp Water Temp Dewpoint Dewpoint Depression Visibility Wind Speed Wind Dir Waves Ship Positions

Prevelis

Last reported at 2016-May-31 11:33 UTC. Time now 2016-May-31 12:02 UTC.
Position N 38°02' E 023°30'.

Length 143 m; draft 5.5 m.

Type: Passenger vessel. MMSI: 239297000.

Date/timePositionNaut miles runAvg speedWind from/ knotsBaromVisibWave heightAir tempDewpointWater temp
2016-May-31 11:33N 38°02' E 023°30'0 0.0
2016-May-31 10:33N 38°02' E 023°30'0 0.0
2016-May-31 09:33N 38°02' E 023°30'0 0.0
2016-May-31 08:33N 38°02' E 023°30'0 0.0
2016-May-31 07:33N 38°02' E 023°30'0 0.0
2016-May-31 06:33N 38°02' E 023°30'2 1.0
2016-May-31 04:33N 38°01' E 023°32'6 6.3
2016-May-31 03:33N 37°57' E 023°38'0 0.0
2016-May-31 02:33N 37°57' E 023°38'0 0.0
2016-May-31 01:33N 37°57' E 023°38'0 0.0
2016-May-31 00:33N 37°57' E 023°38'0 0.0
2016-May-30 23:33N 37°57' E 023°38'0 0.0
2016-May-30 22:33N 37°57' E 023°38'0 0.0
2016-May-30 21:33N 37°57' E 023°38'0 0.0
2016-May-30 20:33N 37°57' E 023°38'0 0.0
2016-May-30 19:33N 37°57' E 023°38'0 0.0
2016-May-30 18:33N 37°57' E 023°38'0 0.0
2016-May-30 17:33N 37°57' E 023°38'0 0.0
2016-May-30 16:33N 37°57' E 023°38'0 0.0
2016-May-30 15:33N 37°57' E 023°38'0 0.0
2016-May-30 14:33N 37°57' E 023°38'0 0.0
2016-May-30 13:33N 37°57' E 023°38'0 0.0
2016-May-30 12:33N 37°57' E 023°38'0 0.0
2016-May-30 11:33N 37°57' E 023°38'0 0.0
2016-May-30 10:33N 37°57' E 023°38'7 6.7
2016-May-30 09:34N 37°50' E 023°39'1717.2
2016-May-30 08:34N 37°35' E 023°49'1717.3
2016-May-30 07:33N 37°20' E 023°59'1717.0
2016-May-30 06:33N 37°05' E 024°10'1716.9
2016-May-30 05:31N 36°49' E 024°20'8 7.3
2016-May-30 04:26N 36°43' E 024°26'  
2016-May-27 18:33N 37°13' E 024°03'1716.7
2016-May-27 17:34N 37°27' E 023°53'1616.3
2016-May-27 16:34N 37°41' E 023°42'1515.1
2016-May-27 15:33N 37°56' E 023°37'1 1.4
2016-May-27 14:33N 37°57' E 023°38'0 0.0
2016-May-27 13:32N 37°57' E 023°38'0 0.0
2016-May-27 12:33N 37°57' E 023°38'0 0.0
2016-May-27 11:33N 37°57' E 023°38'0 0.0
2016-May-27 10:33N 37°57' E 023°38'0 0.0
2016-May-27 09:33N 37°57' E 023°38'0 0.0
2016-May-27 08:33N 37°57' E 023°38'0 0.0
2016-May-27 07:33N 37°57' E 023°38'0 0.0
2016-May-27 06:33N 37°57' E 023°38'0 0.0
2016-May-27 05:33N 37°57' E 023°38'0 0.0
2016-May-27 04:33N 37°57' E 023°38'0 0.3
2016-May-27 03:33N 37°57' E 023°38'9 8.8
2016-May-27 02:34N 37°48' E 023°41'1716.4
2016-May-27 01:33N 37°33' E 023°49'1716.7
2016-May-27 00:33N 37°18' E 023°59'  
2016-May-24 20:33N 37°23' E 023°55'1717.1
2016-May-24 19:33N 37°38' E 023°44'1616.6
2016-May-24 18:33N 37°54' E 023°37'3 3.4
2016-May-24 17:33N 37°57' E 023°38'0 0.0
2016-May-24 16:33N 37°57' E 023°38'0 0.0
2016-May-24 15:33N 37°57' E 023°38'0 0.0
2016-May-24 14:33N 37°57' E 023°38'0 0.0
2016-May-24 13:33N 37°57' E 023°38'0 0.0
2016-May-24 12:33N 37°57' E 023°38'0 0.0
2016-May-24 11:34N 37°57' E 023°38'0 0.0
2016-May-24 10:33N 37°57' E 023°38'0 0.0
2016-May-24 09:33N 37°57' E 023°38'0 0.0
2016-May-24 08:33N 37°57' E 023°38'0 0.0
2016-May-24 07:33N 37°57' E 023°38'0 0.0
2016-May-24 06:33N 37°57' E 023°38'0 0.0
2016-May-24 05:33N 37°57' E 023°38'0 0.0
2016-May-24 04:33N 37°57' E 023°38'0 0.0
2016-May-24 03:33N 37°57' E 023°38'0 0.0
2016-May-24 02:33N 37°57' E 023°38'0 0.0
2016-May-24 01:33N 37°57' E 023°38'0 0.0
2016-May-24 00:34N 37°57' E 023°38'0 0.0
2016-May-23 23:33N 37°57' E 023°38'0 0.0
2016-May-23 22:33N 37°57' E 023°38'0 0.0
2016-May-23 21:33N 37°57' E 023°38'0 0.0
2016-May-23 20:33N 37°57' E 023°38'0 0.0
2016-May-23 19:33N 37°57' E 023°38'0 0.0
2016-May-23 18:33N 37°57' E 023°38'0 0.0
2016-May-23 17:33N 37°57' E 023°38'0 0.0
2016-May-23 16:32N 37°57' E 023°38'0 0.0
2016-May-23 15:33N 37°57' E 023°38'0 0.0
2016-May-23 14:33N 37°57' E 023°38'0 0.0
2016-May-23 13:33N 37°57' E 023°38'0 0.0
2016-May-23 12:33N 37°57' E 023°38'0 0.0
2016-May-23 11:33N 37°57' E 023°38'6 5.6
2016-May-23 10:34N 37°51' E 023°39'1716.7
2016-May-23 09:33N 37°36' E 023°48'1816.8
2016-May-23 08:30N 37°20' E 023°57'  

Dump ship's entire track history